Ulan Bator, Mongolia
Current Conditions -  °F | °C
As of 10:00 AM on Saturday 29 Nov 2014 (Local Time) from ZMUB Reporting Station
Scattered Clouds Scattered Clouds  
Wind Chill:   Ceiling: Unl
Heat Index:   Visibility: 4mi
Dew Point: -6°   Wind: 2mph
Humidity: 66%   Direction: NA
Pressure: 29.85"   Gusts: NA
Location:  47.92°N, 106.91°E
Report Text: ZMUB 290200Z VRB01MPS 6000NW SCT100 M16/M21 Q1011 NOSIG RMK QFE651.3 73 NW MO
Loading
Personal Weather Stations






























Interactive Weather Map New forecast layout! Learn more

10-Day Weather Forecast

Advertisements
Track Severe Weather on mobile